createdAt,value
2018-12-01T00:01:15.097Z,13.23
2018-12-01T00:03:42.536Z,13.25
2018-12-01T00:06:09.966Z,15.27
2018-12-01T00:08:37.404Z,14.40
2018-12-01T00:11:04.843Z,14.77
2018-12-01T00:13:32.303Z,15.10
2018-12-01T00:15:59.744Z,14.53
2018-12-01T00:18:27.179Z,14.13
2018-12-01T00:20:54.671Z,14.00
2018-12-01T00:23:22.136Z,14.15
2018-12-01T00:25:49.560Z,14.07
2018-12-01T00:28:16.984Z,14.03
2018-12-01T00:30:44.427Z,14.03
2018-12-01T00:33:11.867Z,14.05
2018-12-01T00:35:39.311Z,13.87
2018-12-01T00:38:06.752Z,13.55
2018-12-01T00:40:34.175Z,13.53
2018-12-01T00:43:01.604Z,14.03
2018-12-01T00:45:29.041Z,12.57
2018-12-01T00:47:56.463Z,12.90
2018-12-01T00:50:23.906Z,14.20
2018-12-01T00:52:51.345Z,13.32
2018-12-01T00:55:18.788Z,13.97
2018-12-01T00:57:46.211Z,13.35
2018-12-01T01:00:13.635Z,13.73
2018-12-01T01:02:41.837Z,12.98
2018-12-01T01:05:09.272Z,13.03
2018-12-01T01:07:36.711Z,12.93
2018-12-01T01:10:04.231Z,12.77
2018-12-01T01:12:31.824Z,12.78
2018-12-01T01:14:59.250Z,13.00
2018-12-01T01:17:26.812Z,13.97
2018-12-01T01:19:54.275Z,13.30
2018-12-01T01:22:21.698Z,13.67
2018-12-01T01:24:49.142Z,12.27
2018-12-01T01:27:16.566Z,12.50
2018-12-01T01:29:44.098Z,15.48
2018-12-01T01:32:11.661Z,15.57
2018-12-01T01:34:39.097Z,13.68
2018-12-01T01:37:06.567Z,14.67
2018-12-01T01:39:34.007Z,14.03
2018-12-01T01:42:01.496Z,14.97
2018-12-01T01:44:28.932Z,11.85
2018-12-01T01:46:56.367Z,13.20
2018-12-01T01:49:23.807Z,12.73
2018-12-01T01:51:51.319Z,13.10
2018-12-01T01:54:18.759Z,13.70
2018-12-01T01:56:46.186Z,12.90
2018-12-01T01:59:13.615Z,12.50
2018-12-01T02:01:41.039Z,11.17
2018-12-01T02:04:08.485Z,11.38
2018-12-01T02:06:35.960Z,12.23
2018-12-01T02:09:03.544Z,11.90
2018-12-01T02:11:30.971Z,12.23
2018-12-01T02:13:58.400Z,11.80
2018-12-01T02:16:25.902Z,12.13
2018-12-01T02:18:53.611Z,11.37
2018-12-01T02:21:21.124Z,12.70
2018-12-01T02:23:48.544Z,12.27
2018-12-01T02:26:16.027Z,12.60
2018-12-01T02:28:43.498Z,11.63
2018-12-01T02:31:10.933Z,11.80
2018-12-01T02:33:38.528Z,11.93
2018-12-01T02:36:06.055Z,12.10
2018-12-01T02:38:33.462Z,12.00
2018-12-01T02:41:00.979Z,12.70
2018-12-01T02:43:28.415Z,12.05
2018-12-01T02:45:55.908Z,12.67
2018-12-01T02:48:23.355Z,12.90
2018-12-01T02:50:50.811Z,12.93
2018-12-01T02:53:18.239Z,12.20
2018-12-01T02:55:45.672Z,12.20
2018-12-01T02:58:13.112Z,11.88
2018-12-01T03:00:40.541Z,12.17
2018-12-01T03:03:08.006Z,13.28
2018-12-01T03:05:35.446Z,12.30
2018-12-01T03:08:02.875Z,11.70
2018-12-01T03:10:30.302Z,12.47
2018-12-01T03:12:57.747Z,12.28
2018-12-01T03:15:25.193Z,11.60
2018-12-01T03:17:52.625Z,13.08
2018-12-01T03:20:20.068Z,12.20
2018-12-01T03:22:47.570Z,12.37
2018-12-01T03:25:18.463Z,12.63
2018-12-01T03:27:45.899Z,12.90
2018-12-01T03:30:13.344Z,12.82
2018-12-01T03:32:40.783Z,14.10
2018-12-01T03:35:08.207Z,12.35
2018-12-01T03:37:35.656Z,12.40
2018-12-01T03:40:03.080Z,13.38
2018-12-01T03:42:31.123Z,13.27
2018-12-01T03:44:58.568Z,12.77
2018-12-01T03:47:25.992Z,12.58
2018-12-01T03:49:53.423Z,12.07
2018-12-01T03:52:20.855Z,12.05
2018-12-01T03:54:48.279Z,12.90
2018-12-01T03:57:15.718Z,11.33
2018-12-01T03:59:43.162Z,12.93
2018-12-01T04:02:10.592Z,12.98
2018-12-01T04:04:38.016Z,13.90
2018-12-01T04:07:05.460Z,13.22
2018-12-01T04:09:32.888Z,15.67
2018-12-01T04:12:00.328Z,13.38
2018-12-01T04:14:27.868Z,16.77
2018-12-01T04:16:55.304Z,14.15
2018-12-01T04:19:22.723Z,15.00
2018-12-01T04:21:50.152Z,12.68
2018-12-01T04:24:17.579Z,12.43
2018-12-01T04:26:45.023Z,13.75
2018-12-01T04:29:12.507Z,13.87
2018-12-01T04:31:39.940Z,13.00
2018-12-01T04:34:07.373Z,13.60
2018-12-01T04:36:34.811Z,13.72
2018-12-01T04:39:02.235Z,12.63
2018-12-01T04:41:29.663Z,12.98
2018-12-01T04:43:57.095Z,11.47
2018-12-01T04:46:24.539Z,13.70
2018-12-01T04:48:51.959Z,12.73
2018-12-01T04:51:19.398Z,14.25
2018-12-01T04:53:46.828Z,12.93
2018-12-01T04:56:14.259Z,12.18
2018-12-01T04:58:41.687Z,12.70
2018-12-01T05:01:09.123Z,13.60
2018-12-01T05:03:36.572Z,12.97
2018-12-01T05:06:04.166Z,14.95
2018-12-01T05:08:31.591Z,13.13
2018-12-01T05:10:59.028Z,14.43
2018-12-01T05:13:26.454Z,14.20
2018-12-01T05:15:53.892Z,13.08
2018-12-01T05:18:21.324Z,13.50
2018-12-01T05:20:48.767Z,14.58
2018-12-01T05:23:16.199Z,14.53
2018-12-01T05:25:43.631Z,13.72
2018-12-01T05:28:11.051Z,15.33
2018-12-01T05:30:38.543Z,15.00
2018-12-01T05:33:05.979Z,15.10
2018-12-01T05:35:33.979Z,14.78
2018-12-01T05:38:01.423Z,14.35
2018-12-01T05:40:28.855Z,14.57
2018-12-01T05:42:56.295Z,14.30
2018-12-01T05:45:23.748Z,14.53
2018-12-01T05:47:51.173Z,14.60
2018-12-01T05:50:26.582Z,14.43
2018-12-01T05:52:54.044Z,14.10
2018-12-01T05:55:21.840Z,14.95
2018-12-01T05:57:49.259Z,14.67
2018-12-01T06:00:17.111Z,14.87
2018-12-01T06:02:44.555Z,16.60
2018-12-01T06:05:12.002Z,15.33
2018-12-01T06:07:39.512Z,15.27
2018-12-01T06:10:06.960Z,15.78
2018-12-01T06:12:34.416Z,15.63
2018-12-01T06:15:01.882Z,15.20
2018-12-01T06:17:29.307Z,15.93
2018-12-01T06:19:56.748Z,15.00
2018-12-01T06:22:24.175Z,15.23
2018-12-01T06:24:51.595Z,15.28
2018-12-01T06:27:19.059Z,15.40
2018-12-01T06:29:46.519Z,15.05
2018-12-01T06:32:13.964Z,15.67
2018-12-01T06:34:41.426Z,16.60
2018-12-01T06:37:08.886Z,16.07
2018-12-01T06:39:36.327Z,17.17
2018-12-01T06:42:03.788Z,16.83
2018-12-01T06:44:31.221Z,17.20
2018-12-01T06:46:58.656Z,17.00
2018-12-01T06:49:26.095Z,16.52
2018-12-01T06:51:53.643Z,17.40
2018-12-01T06:54:21.076Z,17.32
2018-12-01T06:56:48.521Z,16.87
2018-12-01T06:59:15.960Z,17.15
2018-12-01T07:01:43.398Z,17.80
2018-12-01T07:04:10.830Z,17.05
2018-12-01T07:06:38.260Z,19.17
2018-12-01T07:09:05.692Z,16.70
2018-12-01T07:11:33.133Z,18.93
2018-12-01T07:14:01.420Z,17.62
2018-12-01T07:16:28.931Z,17.83
2018-12-01T07:18:56.383Z,19.45
2018-12-01T07:21:23.820Z,17.60
2018-12-01T07:23:51.263Z,17.60
2018-12-01T07:26:18.767Z,17.83
2018-12-01T07:28:46.198Z,17.12
2018-12-01T07:31:13.627Z,18.77
2018-12-01T07:33:41.131Z,18.30
2018-12-01T07:36:08.571Z,18.70
2018-12-01T07:38:36.008Z,17.48
2018-12-01T07:41:03.442Z,18.57
2018-12-01T07:43:30.973Z,18.23
2018-12-01T07:45:58.395Z,18.30
2018-12-01T07:48:25.839Z,18.30
2018-12-01T07:50:53.285Z,17.70
2018-12-01T07:53:20.758Z,20.02
2018-12-01T07:55:48.191Z,18.53
2018-12-01T07:58:15.645Z,20.40
2018-12-01T08:00:43.096Z,17.03
2018-12-01T08:03:10.532Z,19.05
2018-12-01T08:05:37.997Z,17.13
2018-12-01T08:08:05.424Z,18.48
2018-12-01T08:10:32.873Z,18.63
2018-12-01T08:13:00.312Z,19.17
2018-12-01T08:15:27.787Z,19.03
2018-12-01T08:17:55.215Z,18.48
2018-12-01T08:20:22.662Z,18.93
2018-12-01T08:22:50.129Z,19.20
2018-12-01T08:25:17.568Z,18.67
2018-12-01T08:27:45.031Z,18.90
2018-12-01T08:30:12.472Z,19.40
2018-12-01T08:32:39.910Z,21.10
2018-12-01T08:35:07.364Z,19.00
2018-12-01T08:37:34.815Z,18.55
2018-12-01T08:40:02.244Z,18.13
2018-12-01T08:42:29.688Z,18.57
2018-12-01T08:44:57.123Z,19.03
2018-12-01T08:47:24.589Z,18.92
2018-12-01T08:49:52.035Z,19.30
2018-12-01T08:52:19.500Z,20.30
2018-12-01T08:54:46.932Z,21.10
2018-12-01T08:57:14.376Z,20.68
2018-12-01T08:59:41.844Z,20.13
2018-12-01T09:02:09.277Z,19.23
2018-12-01T09:04:37.664Z,20.17
2018-12-01T09:07:05.111Z,18.73
2018-12-01T09:09:32.574Z,19.40
2018-12-01T09:12:00.008Z,19.15
2018-12-01T09:14:27.444Z,19.83
2018-12-01T09:16:54.896Z,20.32
2018-12-01T09:19:22.332Z,19.47
2018-12-01T09:21:49.780Z,19.70
2018-12-01T09:24:17.264Z,20.30
2018-12-01T09:26:44.699Z,21.33
2018-12-01T09:29:12.140Z,20.30
2018-12-01T09:31:39.570Z,20.35
2018-12-01T09:34:07.044Z,20.37
2018-12-01T09:36:34.497Z,19.40
2018-12-01T09:39:01.944Z,19.90
2018-12-01T09:41:29.381Z,20.17
2018-12-01T09:43:56.821Z,18.80
2018-12-01T09:46:24.283Z,20.65
2018-12-01T09:48:51.731Z,20.13
2018-12-01T09:51:19.171Z,18.30
2018-12-01T09:53:46.630Z,20.47
2018-12-01T09:56:14.063Z,19.98
2018-12-01T09:58:41.511Z,21.37
2018-12-01T10:01:08.941Z,20.50
2018-12-01T10:03:36.380Z,22.07
2018-12-01T10:06:03.837Z,22.93
2018-12-01T10:08:31.266Z,21.70
2018-12-01T10:10:58.703Z,23.27
2018-12-01T10:13:26.172Z,23.27
2018-12-01T10:15:53.610Z,29.18
2018-12-01T10:18:21.074Z,21.23
2018-12-01T10:20:48.503Z,24.40
2018-12-01T10:23:15.943Z,25.30
2018-12-01T10:25:43.384Z,27.52
2018-12-01T10:28:10.833Z,23.90
2018-12-01T10:30:38.261Z,17.37
2018-12-01T10:33:05.724Z,24.23
2018-12-01T10:35:33.172Z,21.30
2018-12-01T10:38:00.619Z,21.77
2018-12-01T10:40:28.051Z,23.12
2018-12-01T10:42:55.496Z,23.60
2018-12-01T10:45:22.936Z,21.48
2018-12-01T10:47:50.379Z,21.80
2018-12-01T10:50:17.829Z,22.77
2018-12-01T10:52:45.291Z,25.00
2018-12-01T10:55:12.736Z,26.15
2018-12-01T10:57:40.169Z,24.20
2018-12-01T11:00:07.651Z,22.17
2018-12-01T11:02:40.804Z,22.50
2018-12-01T11:05:07.908Z,17.73
2018-12-01T11:07:35.336Z,23.47
2018-12-01T11:10:02.762Z,23.17
2018-12-01T11:12:30.199Z,22.07
2018-12-01T11:14:57.639Z,22.20
2018-12-01T11:17:25.094Z,23.38
2018-12-01T11:19:52.538Z,23.93
2018-12-01T11:22:20.017Z,24.45
2018-12-01T11:24:47.412Z,24.13
2018-12-01T11:27:14.863Z,24.07
2018-12-01T11:29:42.391Z,22.33
2018-12-01T11:32:09.821Z,23.10
2018-12-01T11:34:37.260Z,23.70
2018-12-01T11:37:04.689Z,23.40
2018-12-01T11:39:32.119Z,24.27
2018-12-01T11:41:59.553Z,24.90
2018-12-01T11:44:26.989Z,24.90
2018-12-01T11:46:54.484Z,25.23
2018-12-01T11:49:21.921Z,23.60
2018-12-01T11:51:49.359Z,23.35
2018-12-01T11:54:16.787Z,24.20
2018-12-01T11:56:44.315Z,25.82
2018-12-01T11:59:11.768Z,24.23
2018-12-01T12:01:39.228Z,23.62
2018-12-01T12:04:06.688Z,23.80
2018-12-01T12:06:34.121Z,24.98
2018-12-01T12:09:01.599Z,26.40
2018-12-01T12:11:29.023Z,25.50
2018-12-01T12:13:56.456Z,25.20
2018-12-01T12:16:23.887Z,24.80
2018-12-01T12:18:51.324Z,24.53
2018-12-01T12:21:18.801Z,24.47
2018-12-01T12:23:46.240Z,24.17
2018-12-01T12:26:13.671Z,24.77
2018-12-01T12:28:41.116Z,22.90
2018-12-01T12:31:08.560Z,23.83
2018-12-01T12:33:35.992Z,25.20
2018-12-01T12:36:03.436Z,25.12
2018-12-01T12:38:30.864Z,25.63
2018-12-01T12:40:58.353Z,23.67
2018-12-01T12:43:25.777Z,24.47
2018-12-01T12:45:53.224Z,23.70
2018-12-01T12:48:20.650Z,25.20
2018-12-01T12:50:52.932Z,24.13
2018-12-01T12:53:16.481Z,25.17
2018-12-01T12:55:43.908Z,25.33
2018-12-01T12:58:11.856Z,24.20
2018-12-01T13:00:39.284Z,23.73
2018-12-01T13:03:06.728Z,24.85
2018-12-01T13:05:34.164Z,25.60
2018-12-01T13:08:01.593Z,25.10
2018-12-01T13:10:29.028Z,23.97
2018-12-01T13:12:56.468Z,25.43
2018-12-01T13:15:23.968Z,22.47
2018-12-01T13:17:51.387Z,23.73
2018-12-01T13:20:18.828Z,25.07
2018-12-01T13:22:46.251Z,24.32
2018-12-01T13:25:13.687Z,23.23
2018-12-01T13:27:41.122Z,23.38
2018-12-01T13:30:08.624Z,23.00
2018-12-01T13:32:36.075Z,22.25
2018-12-01T13:35:03.507Z,24.50
2018-12-01T13:37:31.819Z,25.48
2018-12-01T13:39:59.272Z,24.47
2018-12-01T13:42:26.717Z,24.35
2018-12-01T13:44:54.188Z,24.83
2018-12-01T13:47:21.679Z,22.32
2018-12-01T13:49:49.103Z,24.03
2018-12-01T13:52:16.523Z,23.07
2018-12-01T13:54:43.967Z,23.80
2018-12-01T13:57:11.404Z,22.80
2018-12-01T13:59:38.825Z,25.10
2018-12-01T14:02:06.287Z,23.92
2018-12-01T14:04:33.829Z,26.73
2018-12-01T14:07:01.240Z,26.15
2018-12-01T14:09:28.774Z,28.63
2018-12-01T14:11:56.228Z,25.05
2018-12-01T14:14:24.272Z,25.77
2018-12-01T14:16:51.749Z,27.27
2018-12-01T14:19:19.207Z,26.50
2018-12-01T14:21:46.683Z,26.33
2018-12-01T14:24:14.111Z,25.70
2018-12-01T14:26:41.548Z,25.13
2018-12-01T14:29:08.987Z,26.27
2018-12-01T14:31:36.495Z,25.17
2018-12-01T14:34:04.057Z,26.93
2018-12-01T14:36:31.511Z,26.50
2018-12-01T14:38:58.955Z,24.33
2018-12-01T14:41:26.479Z,25.53
2018-12-01T14:43:53.903Z,23.40
2018-12-01T14:46:23.782Z,23.97
2018-12-01T14:48:48.877Z,24.07
2018-12-01T14:51:16.365Z,24.63
2018-12-01T14:53:43.816Z,25.32
2018-12-01T14:56:11.256Z,25.93
2018-12-01T14:58:42.410Z,23.95
2018-12-01T15:01:06.810Z,24.67
2018-12-01T15:03:34.233Z,24.67
2018-12-01T15:06:01.674Z,24.27
2018-12-01T15:08:29.105Z,22.75
2018-12-01T15:10:56.631Z,24.90
2018-12-01T15:13:24.195Z,23.50
2018-12-01T15:15:51.638Z,25.63
2018-12-01T15:18:19.075Z,23.83
2018-12-01T15:20:46.511Z,24.40
2018-12-01T15:23:13.943Z,23.97
2018-12-01T15:25:41.407Z,25.37
2018-12-01T15:28:08.828Z,25.40
2018-12-01T15:30:36.395Z,23.98
2018-12-01T15:33:10.122Z,25.47
2018-12-01T15:35:37.577Z,26.73
2018-12-01T15:38:05.011Z,24.60
2018-12-01T15:40:32.558Z,23.53
2018-12-01T15:42:59.981Z,24.80
2018-12-01T15:45:27.491Z,25.07
2018-12-01T15:47:54.922Z,24.75
2018-12-01T15:50:22.356Z,26.70
2018-12-01T15:52:51.301Z,24.47
2018-12-01T15:55:18.737Z,25.37
2018-12-01T15:57:46.372Z,25.50
2018-12-01T16:00:13.891Z,28.50
2018-12-01T16:02:41.397Z,25.93
2018-12-01T16:05:08.835Z,32.87
2018-12-01T16:07:36.272Z,26.57
2018-12-01T16:10:03.708Z,25.02
2018-12-01T16:12:31.184Z,27.10
2018-12-01T16:14:58.564Z,27.05
2018-12-01T16:17:26.015Z,26.20
2018-12-01T16:19:53.638Z,25.17
2018-12-01T16:22:21.067Z,24.73
2018-12-01T16:24:48.567Z,27.87
2018-12-01T16:27:15.998Z,24.53
2018-12-01T16:29:44.108Z,25.97
2018-12-01T16:32:11.560Z,27.37
2018-12-01T16:34:39.000Z,28.15
2018-12-01T16:37:06.441Z,23.87
2018-12-01T16:39:34.040Z,24.80
2018-12-01T16:42:01.658Z,25.97
2018-12-01T16:44:29.055Z,24.90
2018-12-01T16:46:56.499Z,26.50
2018-12-01T16:49:23.943Z,25.93
2018-12-01T16:51:51.379Z,24.85
2018-12-01T16:54:18.829Z,24.43
2018-12-01T16:56:46.280Z,27.07
2018-12-01T16:59:13.710Z,26.73
2018-12-01T17:01:41.147Z,24.50
2018-12-01T17:04:08.588Z,25.67
2018-12-01T17:06:36.028Z,26.77
2018-12-01T17:09:03.915Z,24.93
2018-12-01T17:11:31.343Z,23.80
2018-12-01T17:13:58.787Z,24.37
2018-12-01T17:16:26.218Z,24.33
2018-12-01T17:18:54.342Z,25.55
2018-12-01T17:21:21.099Z,24.60
2018-12-01T17:23:48.536Z,25.08
2018-12-01T17:26:15.983Z,28.20
2018-12-01T17:28:43.471Z,23.73
2018-12-01T17:31:10.943Z,25.17
2018-12-01T17:33:38.380Z,24.30
2018-12-01T17:36:05.812Z,25.67
2018-12-01T17:38:33.256Z,25.32
2018-12-01T17:41:00.687Z,26.40
2018-12-01T17:43:28.124Z,25.82
2018-12-01T17:45:55.547Z,23.10
2018-12-01T17:48:23.031Z,25.02
2018-12-01T17:50:50.473Z,24.77
2018-12-01T17:53:17.912Z,22.98
2018-12-01T17:55:45.436Z,24.33
2018-12-01T17:58:12.932Z,23.22
2018-12-01T18:00:40.376Z,26.40
2018-12-01T18:03:07.807Z,24.10
2018-12-01T18:05:35.246Z,25.40
2018-12-01T18:08:02.690Z,24.63
2018-12-01T18:10:30.179Z,26.27
2018-12-01T18:12:57.656Z,23.60
2018-12-01T18:15:25.087Z,23.93
2018-12-01T18:17:52.515Z,25.68
2018-12-01T18:20:20.763Z,23.30
2018-12-01T18:22:48.209Z,25.10
2018-12-01T18:25:15.647Z,22.10
2018-12-01T18:27:43.090Z,22.80
2018-12-01T18:30:10.529Z,23.32
2018-12-01T18:32:37.966Z,23.77
2018-12-01T18:35:05.394Z,23.18
2018-12-01T18:37:32.829Z,21.83
2018-12-01T18:40:00.266Z,21.90
2018-12-01T18:42:27.702Z,23.03
2018-12-01T18:44:55.145Z,21.55
2018-12-01T18:47:22.587Z,22.17
2018-12-01T18:49:50.024Z,21.73
2018-12-01T18:52:17.474Z,21.83
2018-12-01T18:54:44.923Z,23.20
2018-12-01T18:57:12.499Z,22.53
2018-12-01T18:59:39.936Z,20.40
2018-12-01T19:02:07.384Z,22.40
2018-12-01T19:04:34.804Z,21.00
2018-12-01T19:07:02.248Z,22.67
2018-12-01T19:09:29.684Z,23.45
2018-12-01T19:11:57.121Z,22.90
2018-12-01T19:14:24.559Z,23.05
2018-12-01T19:16:51.986Z,22.73
2018-12-01T19:19:19.426Z,22.07
2018-12-01T19:21:46.859Z,23.07
2018-12-01T19:24:14.303Z,22.83
2018-12-01T19:26:41.726Z,22.90
2018-12-01T19:29:09.164Z,22.30
2018-12-01T19:31:36.590Z,22.10
2018-12-01T19:34:04.031Z,23.38
2018-12-01T19:36:31.474Z,22.90
2018-12-01T19:38:58.906Z,22.20
2018-12-01T19:41:26.318Z,23.00
2018-12-01T19:43:53.768Z,22.90
2018-12-01T19:46:21.198Z,22.83
2018-12-01T19:48:48.631Z,22.37
2018-12-01T19:51:16.082Z,23.10
2018-12-01T19:53:43.517Z,23.10
2018-12-01T19:56:10.948Z,22.50
2018-12-01T19:58:38.392Z,20.60
2018-12-01T20:01:05.822Z,22.83
2018-12-01T20:03:33.262Z,21.80
2018-12-01T20:06:00.719Z,23.03
2018-12-01T20:08:28.152Z,20.62
2018-12-01T20:10:55.580Z,21.30
2018-12-01T20:13:23.015Z,20.32
2018-12-01T20:15:50.443Z,21.20
2018-12-01T20:18:17.875Z,20.37
2018-12-01T20:20:45.310Z,21.63
2018-12-01T20:23:12.747Z,20.02
2018-12-01T20:25:40.179Z,21.10
2018-12-01T20:28:07.620Z,20.50
2018-12-01T20:30:35.052Z,18.73
2018-12-01T20:33:02.493Z,19.75
2018-12-01T20:35:29.923Z,18.83
2018-12-01T20:37:57.365Z,17.63
2018-12-01T20:40:24.795Z,19.00
2018-12-01T20:42:52.230Z,18.30
2018-12-01T20:45:19.672Z,16.57
2018-12-01T20:47:47.101Z,18.70
2018-12-01T20:50:14.540Z,18.93
2018-12-01T20:52:41.976Z,17.40
2018-12-01T20:55:09.414Z,18.50
2018-12-01T20:57:36.844Z,17.25
2018-12-01T21:00:04.268Z,18.00
2018-12-01T21:02:31.694Z,15.08
2018-12-01T21:04:59.132Z,15.97
2018-12-01T21:07:26.569Z,17.95
2018-12-01T21:09:54.002Z,15.70
2018-12-01T21:12:21.446Z,15.70
2018-12-01T21:14:48.880Z,17.03
2018-12-01T21:17:16.312Z,16.02
2018-12-01T21:19:43.767Z,15.27
2018-12-01T21:22:11.197Z,15.32
2018-12-01T21:24:38.638Z,16.73
2018-12-01T21:27:06.098Z,16.90
2018-12-01T21:29:33.534Z,16.00
2018-12-01T21:32:00.974Z,14.47
2018-12-01T21:34:28.419Z,16.43
2018-12-01T21:36:55.851Z,15.88
2018-12-01T21:39:23.437Z,16.20
2018-12-01T21:41:50.873Z,15.53
2018-12-01T21:44:18.361Z,18.13
2018-12-01T21:46:45.945Z,15.70
2018-12-01T21:49:13.390Z,16.60
2018-12-01T21:51:40.819Z,16.63
2018-12-01T21:54:08.401Z,15.40
2018-12-01T21:56:35.878Z,16.60
2018-12-01T21:59:03.332Z,15.83
2018-12-01T22:01:30.821Z,16.67
2018-12-01T22:03:58.325Z,16.30
2018-12-01T22:06:25.780Z,16.23
2018-12-01T22:08:53.214Z,15.77
2018-12-01T22:11:20.654Z,16.57
2018-12-01T22:13:48.099Z,16.83
2018-12-01T22:16:15.563Z,16.20
2018-12-01T22:18:43.017Z,16.57
2018-12-01T22:21:10.450Z,15.72
2018-12-01T22:23:37.912Z,16.23
2018-12-01T22:26:05.373Z,16.73
2018-12-01T22:28:35.319Z,16.50
2018-12-01T22:31:00.332Z,15.55
2018-12-01T22:33:27.771Z,16.30
2018-12-01T22:35:55.237Z,16.40
2018-12-01T22:38:22.721Z,15.70
2018-12-01T22:40:50.196Z,15.08
2018-12-01T22:43:17.655Z,16.97
2018-12-01T22:45:45.143Z,16.65
2018-12-01T22:48:12.601Z,17.30
2018-12-01T22:50:40.110Z,15.58
2018-12-01T22:53:07.547Z,15.53
2018-12-01T22:55:35.005Z,18.83
2018-12-01T22:58:02.448Z,16.60
2018-12-01T23:00:29.908Z,16.67
2018-12-01T23:02:57.654Z,18.05
2018-12-01T23:05:25.142Z,16.03
2018-12-01T23:07:52.629Z,15.73
2018-12-01T23:10:20.109Z,16.48
2018-12-01T23:12:47.566Z,15.07
2018-12-01T23:15:15.007Z,17.23
2018-12-01T23:17:42.461Z,15.60
2018-12-01T23:20:09.904Z,15.32
2018-12-01T23:22:37.363Z,16.53
2018-12-01T23:25:04.821Z,19.48
2018-12-01T23:27:32.275Z,19.47
2018-12-01T23:29:59.742Z,16.85
2018-12-01T23:32:27.189Z,13.33
2018-12-01T23:34:54.640Z,15.25
2018-12-01T23:37:22.091Z,15.10
2018-12-01T23:39:49.568Z,14.95
2018-12-01T23:42:17.004Z,14.97
2018-12-01T23:44:44.446Z,12.55
2018-12-01T23:47:11.884Z,14.57
2018-12-01T23:49:39.332Z,14.33
2018-12-01T23:52:06.832Z,13.93
2018-12-01T23:54:34.253Z,13.28
2018-12-01T23:57:01.697Z,13.73
2018-12-01T23:59:29.136Z,12.45
